Terminal Aerodrome Forecast
Issued by NWS

Home | Current Version | Previous Version | Text Only | Print | Product List | Glossary On
Versions: 1 2 3 4 5 6 7 8 9 10 11 12 13 14 15 16 17 18 19 20 21 22 23
799
FTUS43 KEAX 231120
TAFMKC
TAF
KMKC 231120Z 2312/2412 17009KT P6SM BKN015
      TEMPO 2312/2315 6SM BR BKN010
     FM231500 17014G25KT P6SM VCTS SCT025 BKN040CB
     FM231800 17015G24KT P6SM -TSRA BKN040CB
     FM232200 17013KT P6SM VCTS BKN040CB=

USA.gov is the U.S. government's official web portal to all federal, state and local government web resources and services.